Alto Paraiso de Goias, Brazil
Current Conditions -  °F | °C
As of 7:00 PM on Saturday 25 Oct 2014 (Local Time) from SBBR Reporting Station
Broken Clouds Broken Clouds  
Wind Chill: 75°   Ceiling: 10000
Heat Index: 75°   Visibility: 6mi
Dew Point: 61°   Wind: 10mph
Humidity: 61%   Direction: 250°WSW
Pressure: 30"   Gusts: NA
Location:  14.12°S, 47.52°W
Report Text: SBBR 252100Z 25009KT 9999 FEW040 BKN100 24/16 Q1016
Loading
Personal Weather Stations






























Interactive Weather Map New forecast layout! Learn more

10-Day Weather Forecast

Advertisements
Track Severe Weather on mobile